createdAt,value
2023-05-06T00:01:05.738Z,11.70
2023-05-06T00:03:32.650Z,11.60
2023-05-06T00:05:59.572Z,11.70
2023-05-06T00:08:26.353Z,11.70
2023-05-06T00:10:53.050Z,11.70
2023-05-06T00:13:19.849Z,11.70
2023-05-06T00:15:46.671Z,11.70
2023-05-06T00:18:15.100Z,11.70
2023-05-06T00:20:41.899Z,11.70
2023-05-06T00:23:08.725Z,11.70
2023-05-06T00:25:35.663Z,11.60
2023-05-06T00:28:02.393Z,11.60
2023-05-06T00:30:29.268Z,11.50
2023-05-06T00:32:56.060Z,11.40
2023-05-06T00:35:22.821Z,11.40
2023-05-06T00:38:10.869Z,11.40
2023-05-06T00:40:37.865Z,11.30
2023-05-06T00:43:04.711Z,11.20
2023-05-06T00:45:31.673Z,11.00
2023-05-06T00:47:58.932Z,10.80
2023-05-06T00:50:28.147Z,10.80
2023-05-06T00:52:56.723Z,10.70
2023-05-06T00:55:23.512Z,10.80
2023-05-06T00:57:52.019Z,10.80
2023-05-06T01:00:19.624Z,10.80
2023-05-06T01:02:48.377Z,10.80
2023-05-06T01:05:22.183Z,10.90
2023-05-06T01:08:07.704Z,10.80
2023-05-06T01:10:42.302Z,10.80
2023-05-06T01:13:24.866Z,10.90
2023-05-06T01:15:54.674Z,10.80
2023-05-06T01:18:23.072Z,10.80
2023-05-06T01:20:52.459Z,10.90
2023-05-06T01:23:20.423Z,10.80
2023-05-06T01:25:47.178Z,10.80
2023-05-06T01:28:14.549Z,10.80
2023-05-06T01:30:57.793Z,10.80
2023-05-06T01:33:51.159Z,10.70
2023-05-06T01:36:41.203Z,10.70
2023-05-06T01:39:20.172Z,10.70
2023-05-06T01:41:50.506Z,10.70
2023-05-06T01:44:20.240Z,10.80
2023-05-06T01:46:48.458Z,10.70
2023-05-06T01:49:17.182Z,10.80
2023-05-06T01:51:51.577Z,10.80
2023-05-06T01:54:18.787Z,10.80
2023-05-06T01:56:46.481Z,10.80
2023-05-06T01:59:14.827Z,10.60
2023-05-06T02:01:41.497Z,10.50
2023-05-06T02:04:08.275Z,10.40
2023-05-06T02:06:35.848Z,10.30
2023-05-06T02:09:02.606Z,10.30
2023-05-06T02:11:31.739Z,10.30
2023-05-06T02:18:29.107Z,10.40
2023-05-06T02:20:56.378Z,10.40
2023-05-06T02:23:23.075Z,10.30
2023-05-06T02:25:50.232Z,10.30
2023-05-06T02:28:17.020Z,10.20
2023-05-06T02:30:43.855Z,10.30
2023-05-06T02:33:10.585Z,10.30
2023-05-06T02:35:37.887Z,10.40
2023-05-06T02:38:04.584Z,10.40
2023-05-06T02:40:31.286Z,10.40
2023-05-06T02:42:58.723Z,10.20
2023-05-06T02:45:25.456Z,10.20
2023-05-06T02:47:52.770Z,10.20
2023-05-06T02:50:19.574Z,10.30
2023-05-06T02:52:46.217Z,10.40
2023-05-06T02:55:12.953Z,10.20
2023-05-06T02:57:39.688Z,10.20
2023-05-06T03:00:07.066Z,10.20
2023-05-06T03:02:33.789Z,10.20
2023-05-06T03:05:00.922Z,10.20
2023-05-06T03:07:27.732Z,10.30
2023-05-06T03:09:54.596Z,10.40
2023-05-06T03:12:21.329Z,10.40
2023-05-06T03:14:48.212Z,10.40
2023-05-06T03:17:15.291Z,10.50
2023-05-06T03:19:41.977Z,10.50
2023-05-06T03:22:11.205Z,10.40
2023-05-06T03:24:41.759Z,10.30
2023-05-06T03:27:08.618Z,10.30
2023-05-06T03:29:35.463Z,10.20
2023-05-06T03:32:04.049Z,10.30
2023-05-06T03:34:34.069Z,10.20
2023-05-06T03:37:00.916Z,10.20
2023-05-06T03:39:28.628Z,10.20
2023-05-06T03:41:55.768Z,10.10
2023-05-06T03:44:23.167Z,10.10
2023-05-06T03:46:50.898Z,10.10
2023-05-06T03:49:20.508Z,10.20
2023-05-06T03:51:48.341Z,10.20
2023-05-06T03:54:16.707Z,10.10
2023-05-06T03:56:43.588Z,10.00
2023-05-06T03:59:10.555Z,9.90
2023-05-06T04:01:37.262Z,9.90
2023-05-06T04:04:04.132Z,10.00
2023-05-06T04:06:30.884Z,10.00
2023-05-06T04:08:57.649Z,10.10
2023-05-06T04:11:24.990Z,10.10
2023-05-06T04:13:51.918Z,10.20
2023-05-06T04:16:21.284Z,10.30
2023-05-06T04:18:49.405Z,10.20
2023-05-06T04:21:18.264Z,10.30
2023-05-06T04:23:51.181Z,10.20
2023-05-06T04:26:22.771Z,9.80
2023-05-06T04:28:49.477Z,9.70
2023-05-06T04:31:17.238Z,9.60
2023-05-06T04:33:46.591Z,9.70
2023-05-06T04:36:20.066Z,9.80
2023-05-06T04:39:00.916Z,9.80
2023-05-06T04:41:31.092Z,9.80
2023-05-06T04:43:57.923Z,9.90
2023-05-06T04:46:24.778Z,9.80
2023-05-06T04:48:52.943Z,9.80
2023-05-06T04:51:20.993Z,9.90
2023-05-06T04:53:47.789Z,10.10
2023-05-06T04:56:14.576Z,10.30
2023-05-06T04:58:41.269Z,10.50
2023-05-06T05:01:09.631Z,10.50
2023-05-06T05:03:36.396Z,10.40
2023-05-06T05:06:04.909Z,10.40
2023-05-06T05:08:31.832Z,10.40
2023-05-06T05:10:58.757Z,10.40
2023-05-06T05:13:27.776Z,10.50
2023-05-06T05:15:55.946Z,10.70
2023-05-06T05:18:25.170Z,10.40
2023-05-06T05:20:55.736Z,10.40
2023-05-06T05:23:22.678Z,10.60
2023-05-06T05:25:49.918Z,10.60
2023-05-06T05:28:17.035Z,10.80
2023-05-06T05:30:43.775Z,11.00
2023-05-06T05:33:10.650Z,11.20
2023-05-06T05:35:38.103Z,11.40
2023-05-06T05:38:05.559Z,11.70
2023-05-06T05:40:32.323Z,11.80
2023-05-06T05:42:59.041Z,11.90
2023-05-06T05:45:32.320Z,12.10
2023-05-06T05:47:59.228Z,12.10
2023-05-06T05:50:26.359Z,12.20
2023-05-06T05:52:54.226Z,12.20
2023-05-06T05:55:21.866Z,12.30
2023-05-06T05:57:50.000Z,12.50
2023-05-06T06:00:17.752Z,12.60
2023-05-06T06:02:44.672Z,12.70
2023-05-06T06:05:13.293Z,12.80
2023-05-06T06:07:40.019Z,12.50
2023-05-06T06:10:08.041Z,12.60
2023-05-06T06:12:35.190Z,12.70
2023-05-06T06:15:02.976Z,12.90
2023-05-06T06:17:30.468Z,13.10
2023-05-06T06:19:59.153Z,13.20
2023-05-06T06:22:26.324Z,13.30
2023-05-06T06:24:54.361Z,13.40
2023-05-06T06:27:21.022Z,13.60
2023-05-06T06:29:51.284Z,13.70
2023-05-06T06:32:18.265Z,13.70
2023-05-06T06:34:44.920Z,13.70
2023-05-06T06:37:12.496Z,13.60
2023-05-06T06:39:39.182Z,13.90
2023-05-06T06:42:06.969Z,14.20
2023-05-06T06:44:45.644Z,14.40
2023-05-06T06:47:12.314Z,14.70
2023-05-06T06:49:40.270Z,14.80
2023-05-06T06:52:07.069Z,14.90
2023-05-06T06:54:33.755Z,14.80
2023-05-06T06:57:01.547Z,14.90
2023-05-06T06:59:28.255Z,15.00
2023-05-06T07:01:55.003Z,15.10
2023-05-06T07:04:21.712Z,14.80
2023-05-06T07:06:48.398Z,14.80
2023-05-06T07:09:15.144Z,14.40
2023-05-06T07:11:41.817Z,14.10
2023-05-06T07:14:08.783Z,13.80
2023-05-06T07:16:35.482Z,13.60
2023-05-06T07:19:02.187Z,13.40
2023-05-06T07:21:32.082Z,13.40
2023-05-06T07:23:59.560Z,13.50
2023-05-06T07:26:26.534Z,13.60
2023-05-06T07:28:53.238Z,13.80
2023-05-06T07:31:21.038Z,14.10
2023-05-06T07:33:48.123Z,14.20
2023-05-06T07:36:14.828Z,14.20
2023-05-06T07:38:41.959Z,14.20
2023-05-06T07:41:08.665Z,14.10
2023-05-06T07:43:35.342Z,14.10
2023-05-06T07:46:04.961Z,14.10
2023-05-06T07:48:33.142Z,14.10
2023-05-06T07:51:00.639Z,14.30
2023-05-06T07:53:27.437Z,14.40
2023-05-06T07:55:57.073Z,14.50
2023-05-06T07:58:23.786Z,14.50
2023-05-06T08:00:50.537Z,14.60
2023-05-06T08:03:17.489Z,14.60
2023-05-06T08:05:44.367Z,14.80
2023-05-06T08:08:11.032Z,14.90
2023-05-06T08:10:37.785Z,14.80
2023-05-06T08:13:04.482Z,14.90
2023-05-06T08:15:31.229Z,14.80
2023-05-06T08:18:02.163Z,14.90
2023-05-06T08:20:33.972Z,15.00
2023-05-06T08:23:00.942Z,15.10
2023-05-06T08:25:27.651Z,15.20
2023-05-06T08:27:54.331Z,15.30
2023-05-06T08:30:21.065Z,15.30
2023-05-06T08:32:47.813Z,15.30
2023-05-06T08:35:14.540Z,15.30
2023-05-06T08:37:41.409Z,15.20
2023-05-06T08:40:21.695Z,15.40
2023-05-06T08:42:49.896Z,15.60
2023-05-06T08:45:17.587Z,15.70
2023-05-06T08:47:44.389Z,15.90
2023-05-06T08:50:11.362Z,16.20
2023-05-06T08:52:41.660Z,16.30
2023-05-06T08:55:10.013Z,16.40
2023-05-06T08:57:37.342Z,16.30
2023-05-06T09:00:04.955Z,16.30
2023-05-06T09:02:31.955Z,16.30
2023-05-06T09:05:00.150Z,16.40
2023-05-06T09:07:26.871Z,16.50
2023-05-06T09:09:53.584Z,16.30
2023-05-06T09:12:20.258Z,16.30
2023-05-06T09:14:50.086Z,16.10
2023-05-06T09:17:26.542Z,16.00
2023-05-06T09:19:54.720Z,16.00
2023-05-06T09:22:22.551Z,16.10
2023-05-06T09:24:56.829Z,16.40
2023-05-06T09:27:32.079Z,17.00
2023-05-06T09:30:07.829Z,17.40
2023-05-06T09:32:38.190Z,17.30
2023-05-06T09:35:07.402Z,16.80
2023-05-06T09:37:34.201Z,16.80
2023-05-06T09:40:01.130Z,16.70
2023-05-06T09:42:29.926Z,16.70
2023-05-06T09:45:01.377Z,16.80
2023-05-06T09:47:34.296Z,16.80
2023-05-06T09:50:02.773Z,17.00
2023-05-06T09:52:30.802Z,17.10
2023-05-06T09:54:58.212Z,17.30
2023-05-06T09:57:26.208Z,17.30
2023-05-06T09:59:55.403Z,17.20
2023-05-06T10:02:23.639Z,17.20
2023-05-06T10:04:54.287Z,17.00
2023-05-06T10:07:23.474Z,16.90
2023-05-06T10:09:53.088Z,17.00
2023-05-06T10:12:20.518Z,17.00
2023-05-06T10:14:47.539Z,16.90
2023-05-06T10:17:14.675Z,16.90
2023-05-06T10:19:45.541Z,16.90
2023-05-06T10:22:41.575Z,16.90
2023-05-06T10:25:19.186Z,16.80
2023-05-06T10:27:49.022Z,16.90
2023-05-06T10:30:19.472Z,16.90
2023-05-06T10:32:46.681Z,17.00
2023-05-06T10:35:46.149Z,17.00
2023-05-06T10:38:15.685Z,16.90
2023-05-06T10:40:43.630Z,16.70
2023-05-06T10:43:28.331Z,16.70
2023-05-06T10:46:05.974Z,16.70
2023-05-06T10:48:33.644Z,16.60
2023-05-06T10:51:15.762Z,16.70
2023-05-06T10:53:59.708Z,17.00
2023-05-06T10:56:26.732Z,17.30
2023-05-06T10:58:55.613Z,17.50
2023-05-06T11:01:25.998Z,17.70
2023-05-06T11:03:53.186Z,17.80
2023-05-06T11:06:38.484Z,17.90
2023-05-06T11:09:05.970Z,17.70
2023-05-06T11:12:05.566Z,17.60
2023-05-06T11:14:38.491Z,17.50
2023-05-06T11:17:30.402Z,17.50
2023-05-06T11:20:19.929Z,17.50
2023-05-06T11:22:46.742Z,17.50
2023-05-06T11:25:13.533Z,17.50
2023-05-06T11:27:40.983Z,17.50
2023-05-06T11:30:13.809Z,17.40
2023-05-06T11:32:43.160Z,17.50
2023-05-06T11:35:11.507Z,17.50
2023-05-06T11:37:38.200Z,17.60
2023-05-06T11:40:14.084Z,17.60
2023-05-06T11:42:41.132Z,17.50
2023-05-06T11:45:08.722Z,17.60
2023-05-06T11:47:35.628Z,17.70
2023-05-06T11:50:07.369Z,17.50
2023-05-06T11:52:35.591Z,17.50
2023-05-06T11:55:02.280Z,17.40
2023-05-06T11:57:30.080Z,17.70
2023-05-06T11:59:56.738Z,18.00
2023-05-06T12:02:23.455Z,18.20
2023-05-06T12:04:50.420Z,18.60
2023-05-06T12:07:17.476Z,19.20
2023-05-06T12:09:47.148Z,19.70
2023-05-06T12:12:22.330Z,19.80
2023-05-06T12:14:50.774Z,19.80
2023-05-06T12:17:17.680Z,19.20
2023-05-06T12:19:45.811Z,19.30
2023-05-06T12:22:16.031Z,19.80
2023-05-06T12:24:42.788Z,19.40
2023-05-06T12:27:09.525Z,19.40
2023-05-06T12:29:36.378Z,19.70
2023-05-06T12:32:11.375Z,19.80
2023-05-06T12:34:39.503Z,19.90
2023-05-06T12:37:07.795Z,19.80
2023-05-06T12:39:36.145Z,19.70
2023-05-06T12:42:03.329Z,19.70
2023-05-06T12:44:35.117Z,20.00
2023-05-06T12:47:09.720Z,20.00
2023-05-06T12:49:55.405Z,19.90
2023-05-06T12:52:23.482Z,19.90
2023-05-06T12:54:52.558Z,19.80
2023-05-06T12:57:19.832Z,19.80
2023-05-06T12:59:47.008Z,19.80
2023-05-06T13:02:14.293Z,19.90
2023-05-06T13:04:41.201Z,20.00
2023-05-06T13:07:08.002Z,20.00
2023-05-06T13:09:34.782Z,20.10
2023-05-06T13:12:02.483Z,20.10
2023-05-06T13:14:29.178Z,20.00
2023-05-06T13:16:56.074Z,19.80
2023-05-06T13:19:32.419Z,19.60
2023-05-06T13:22:00.526Z,19.50
2023-05-06T13:24:27.556Z,19.50
2023-05-06T13:26:56.032Z,19.50
2023-05-06T13:29:23.477Z,19.30
2023-05-06T13:31:50.372Z,19.50
2023-05-06T13:34:17.143Z,19.50
2023-05-06T13:36:43.888Z,19.60
2023-05-06T13:39:10.570Z,19.60
2023-05-06T13:41:37.299Z,19.70
2023-05-06T13:44:04.204Z,19.80
2023-05-06T13:46:31.361Z,19.90
2023-05-06T13:48:58.082Z,19.90
2023-05-06T13:51:29.177Z,20.00
2023-05-06T13:53:56.173Z,20.00
2023-05-06T13:56:22.874Z,20.00
2023-05-06T13:58:49.727Z,20.10
2023-05-06T14:01:16.404Z,20.20
2023-05-06T14:03:43.108Z,20.40
2023-05-06T14:06:09.814Z,20.50
2023-05-06T14:08:36.492Z,20.70
2023-05-06T14:11:03.216Z,20.90
2023-05-06T14:13:31.731Z,20.80
2023-05-06T14:15:59.423Z,20.80
2023-05-06T14:18:26.989Z,20.60
2023-05-06T14:20:54.164Z,20.30
2023-05-06T14:23:21.054Z,20.10
2023-05-06T14:25:48.186Z,20.00
2023-05-06T14:28:15.798Z,19.90
2023-05-06T14:30:43.103Z,20.00
2023-05-06T14:33:10.625Z,20.30
2023-05-06T14:35:42.088Z,20.60
2023-05-06T14:38:10.279Z,21.10
2023-05-06T14:40:38.656Z,21.60
2023-05-06T14:43:07.580Z,21.80
2023-05-06T14:45:34.531Z,21.70
2023-05-06T14:48:01.588Z,21.60
2023-05-06T14:50:28.612Z,21.40
2023-05-06T14:52:55.339Z,21.20
2023-05-06T14:55:22.100Z,21.40
2023-05-06T14:57:48.960Z,21.50
2023-05-06T15:00:16.797Z,21.50
2023-05-06T15:02:43.596Z,21.40
2023-05-06T15:05:10.730Z,21.10
2023-05-06T15:07:37.903Z,21.00
2023-05-06T15:10:05.040Z,20.90
2023-05-06T15:12:31.730Z,21.10
2023-05-06T15:14:58.453Z,21.30
2023-05-06T15:17:25.455Z,21.50
2023-05-06T15:19:52.224Z,21.40
2023-05-06T15:22:18.915Z,21.40
2023-05-06T15:24:45.594Z,21.30
2023-05-06T15:27:12.334Z,21.40
2023-05-06T15:29:40.095Z,21.40
2023-05-06T15:32:07.228Z,21.40
2023-05-06T15:34:34.053Z,21.60
2023-05-06T15:37:01.783Z,21.50
2023-05-06T15:39:28.715Z,21.30
2023-05-06T15:41:58.084Z,21.10
2023-05-06T15:44:26.878Z,20.70
2023-05-06T15:46:53.865Z,20.30
2023-05-06T15:49:47.368Z,20.00
2023-05-06T15:52:07.375Z,19.90
2023-05-06T15:54:37.483Z,19.70
2023-05-06T15:57:05.132Z,19.70
2023-05-06T15:59:33.513Z,19.70
2023-05-06T16:04:30.065Z,19.90
2023-05-06T16:06:57.591Z,19.90
2023-05-06T16:09:24.526Z,19.80
2023-05-06T16:11:51.282Z,19.60
2023-05-06T16:14:17.923Z,20.00
2023-05-06T16:16:44.589Z,20.10
2023-05-06T16:19:11.345Z,20.10
2023-05-06T16:21:38.058Z,20.00
2023-05-06T16:24:04.971Z,20.10
2023-05-06T16:26:31.657Z,20.80
2023-05-06T16:28:59.508Z,21.50
2023-05-06T16:31:26.702Z,22.40
2023-05-06T16:33:53.653Z,23.20
2023-05-06T16:36:20.307Z,23.50
2023-05-06T16:38:46.962Z,23.70
2023-05-06T16:41:13.741Z,23.90
2023-05-06T16:43:40.965Z,24.60
2023-05-06T16:46:07.650Z,25.10
2023-05-06T16:48:34.605Z,25.50
2023-05-06T16:51:01.538Z,25.30
2023-05-06T16:53:29.405Z,25.00
2023-05-06T16:55:56.328Z,24.40
2023-05-06T16:58:23.188Z,24.00
2023-05-06T17:00:52.517Z,23.30
2023-05-06T17:03:19.287Z,22.60
2023-05-06T17:05:46.746Z,22.20
2023-05-06T17:08:13.779Z,21.90
2023-05-06T17:10:40.697Z,21.60
2023-05-06T17:13:07.437Z,21.40
2023-05-06T17:15:34.268Z,21.10
2023-05-06T17:18:01.022Z,21.00
2023-05-06T17:20:27.972Z,21.00
2023-05-06T17:22:54.698Z,21.00
2023-05-06T17:25:21.454Z,21.20
2023-05-06T17:27:48.166Z,21.40
2023-05-06T17:30:15.073Z,21.50
2023-05-06T17:32:42.448Z,21.80
2023-05-06T17:35:10.105Z,22.20
2023-05-06T17:37:36.916Z,22.70
2023-05-06T17:40:05.229Z,23.00
2023-05-06T17:42:33.570Z,23.20
2023-05-06T17:45:00.331Z,22.90
2023-05-06T17:47:29.929Z,22.80
2023-05-06T17:49:56.967Z,23.00
2023-05-06T17:52:26.850Z,23.10
2023-05-06T17:55:06.260Z,22.70
2023-05-06T17:57:38.436Z,22.00
2023-05-06T18:00:07.255Z,21.30
2023-05-06T18:02:39.096Z,20.80
2023-05-06T18:05:06.439Z,20.30
2023-05-06T18:07:34.469Z,19.80
2023-05-06T18:10:01.439Z,19.60
2023-05-06T18:12:28.509Z,19.30
2023-05-06T18:14:56.696Z,18.90
2023-05-06T18:17:23.574Z,18.70
2023-05-06T18:19:50.337Z,18.60
2023-05-06T18:22:17.010Z,18.40
2023-05-06T18:24:43.681Z,18.30
2023-05-06T18:27:10.331Z,18.10
2023-05-06T18:29:37.174Z,17.90
2023-05-06T18:32:04.225Z,17.80
2023-05-06T18:34:31.004Z,17.50
2023-05-06T18:36:57.919Z,17.40
2023-05-06T18:39:25.060Z,17.20
2023-05-06T18:41:51.722Z,17.20
2023-05-06T18:44:18.360Z,17.10
2023-05-06T18:46:45.048Z,17.00
2023-05-06T18:49:13.945Z,16.90
2023-05-06T18:51:40.848Z,16.80
2023-05-06T18:54:07.536Z,16.80
2023-05-06T18:56:34.680Z,16.60
2023-05-06T18:59:01.395Z,16.50
2023-05-06T19:01:28.259Z,16.40
2023-05-06T19:03:56.370Z,16.40
2023-05-06T19:06:23.185Z,16.20
2023-05-06T19:08:49.977Z,16.10
2023-05-06T19:11:18.956Z,16.00
2023-05-06T19:13:46.212Z,15.90
2023-05-06T19:16:13.880Z,15.90
2023-05-06T19:18:40.830Z,15.80
2023-05-06T19:21:10.762Z,15.70
2023-05-06T19:23:37.546Z,15.50
2023-05-06T19:26:10.919Z,15.40
2023-05-06T19:28:39.366Z,15.20
2023-05-06T19:31:09.430Z,15.10
2023-05-06T19:33:39.460Z,15.10
2023-05-06T19:36:06.903Z,15.00
2023-05-06T19:38:34.336Z,14.90
2023-05-06T19:41:01.452Z,14.80
2023-05-06T19:43:28.444Z,14.70
2023-05-06T19:45:55.402Z,14.50
2023-05-06T19:48:23.630Z,14.50
2023-05-06T19:50:51.526Z,14.20
2023-05-06T19:53:18.300Z,14.20
2023-05-06T19:55:44.998Z,14.20
2023-05-06T19:58:13.951Z,14.10
2023-05-06T20:00:40.751Z,14.00
2023-05-06T20:03:08.004Z,13.90
2023-05-06T20:05:34.775Z,13.90
2023-05-06T20:08:01.484Z,13.90
2023-05-06T20:10:28.990Z,13.80
2023-05-06T20:12:57.894Z,13.70
2023-05-06T20:15:25.123Z,13.70
2023-05-06T20:17:51.878Z,13.50
2023-05-06T20:20:18.971Z,13.50
2023-05-06T20:22:45.956Z,13.60
2023-05-06T20:25:16.170Z,13.50
2023-05-06T20:27:44.523Z,13.40
2023-05-06T20:30:11.418Z,13.30
2023-05-06T20:32:39.386Z,13.20
2023-05-06T20:35:06.677Z,13.00
2023-05-06T20:37:36.650Z,13.10
2023-05-06T20:40:06.564Z,13.00
2023-05-06T20:42:36.813Z,12.90
2023-05-06T20:45:04.440Z,12.90
2023-05-06T20:47:31.440Z,12.70
2023-05-06T20:49:58.268Z,12.50
2023-05-06T20:52:25.131Z,12.40
2023-05-06T20:54:51.992Z,12.50
2023-05-06T20:57:19.197Z,12.50
2023-05-06T20:59:45.947Z,12.40
2023-05-06T21:02:12.586Z,12.30
2023-05-06T21:04:39.713Z,12.30
2023-05-06T21:07:06.336Z,12.30
2023-05-06T21:09:33.016Z,12.30
2023-05-06T21:11:59.764Z,12.30
2023-05-06T21:14:26.949Z,12.30
2023-05-06T21:16:53.893Z,12.30
2023-05-06T21:19:20.933Z,12.20
2023-05-06T21:21:48.207Z,12.20
2023-05-06T21:24:15.338Z,12.20
2023-05-06T21:26:42.054Z,12.20
2023-05-06T21:29:08.993Z,12.30
2023-05-06T21:31:35.965Z,12.30
2023-05-06T21:34:04.076Z,12.30
2023-05-06T21:36:31.142Z,12.20
2023-05-06T21:39:06.368Z,11.90
2023-05-06T21:41:35.382Z,11.80
2023-05-06T21:44:03.200Z,11.70
2023-05-06T21:46:30.086Z,11.70
2023-05-06T21:48:57.152Z,11.70
2023-05-06T21:51:28.424Z,11.70
2023-05-06T21:53:55.232Z,11.60
2023-05-06T21:56:22.242Z,11.50
2023-05-06T21:58:48.991Z,11.50
2023-05-06T22:01:15.944Z,11.50
2023-05-06T22:03:43.720Z,11.60
2023-05-06T22:06:10.708Z,11.60
2023-05-06T22:08:37.410Z,11.50
2023-05-06T22:11:04.193Z,11.40
2023-05-06T22:13:30.932Z,11.40
2023-05-06T22:15:57.816Z,11.40
2023-05-06T22:18:25.620Z,11.50
2023-05-06T22:20:56.463Z,11.60
2023-05-06T22:23:24.329Z,11.60
2023-05-06T22:25:54.575Z,11.50
2023-05-06T22:28:21.663Z,11.30
2023-05-06T22:30:48.428Z,11.30
2023-05-06T22:33:15.150Z,11.30
2023-05-06T22:35:41.895Z,11.00
2023-05-06T22:38:08.757Z,10.80
2023-05-06T22:40:35.485Z,11.00
2023-05-06T22:43:02.213Z,11.10
2023-05-06T22:45:29.029Z,11.00
2023-05-06T22:47:56.059Z,10.90
2023-05-06T22:50:22.861Z,10.90
2023-05-06T22:52:49.506Z,10.90
2023-05-06T22:55:16.369Z,10.90
2023-05-06T22:57:43.125Z,11.00
2023-05-06T23:00:12.455Z,10.90
2023-05-06T23:02:39.744Z,10.90
2023-05-06T23:05:06.688Z,11.00
2023-05-06T23:07:33.409Z,10.90
2023-05-06T23:10:00.147Z,11.00
2023-05-06T23:12:27.980Z,10.80
2023-05-06T23:14:54.692Z,10.60
2023-05-06T23:17:21.393Z,10.60
2023-05-06T23:19:48.050Z,10.60
2023-05-06T23:22:14.733Z,10.70
2023-05-06T23:24:42.188Z,10.70
2023-05-06T23:27:08.941Z,10.80
2023-05-06T23:29:35.632Z,10.80
2023-05-06T23:32:02.707Z,10.80
2023-05-06T23:34:29.349Z,10.80
2023-05-06T23:36:56.516Z,10.80
2023-05-06T23:39:23.276Z,10.80
2023-05-06T23:41:50.111Z,10.80
2023-05-06T23:44:16.840Z,10.70
2023-05-06T23:46:43.572Z,10.70
2023-05-06T23:49:10.564Z,10.70
2023-05-06T23:51:37.284Z,10.70
2023-05-06T23:54:04.080Z,10.70
2023-05-06T23:56:30.839Z,10.60
2023-05-06T23:58:57.504Z,10.50
